Time,TemperatureF,DewpointF,PressureIn,WindDirection,WindDirectionDegrees,WindSpeedMPH,WindSpeedGustMPH,Humidity,HourlyPrecipIn,Conditions,Clouds,dailyrainin,SoftwareType,DateUTC
2013-01-19 00:00:00,28.1,24.7,30.32,North,-999,0.0,0.0,87,0.00,,,-99.99,WeatherLink 5.6,2013-01-19 05:00:00,
2013-01-19 00:30:00,28.9,25.5,30.31,North,-999,0.0,0.0,87,0.00,,,-99.99,WeatherLink 5.6,2013-01-19 05:30:00,
2013-01-19 01:00:00,30.1,25.8,30.30,South,180,12.0,19.0,84,0.00,,,-99.99,WeatherLink 5.6,2013-01-19 06:00:00,
2013-01-19 01:30:00,30.8,26.8,30.30,South,180,12.0,21.0,85,0.00,,,-99.99,WeatherLink 5.6,2013-01-19 06:30:00,
2013-01-19 02:00:00,31.4,29.1,30.29,South,180,13.0,21.0,91,0.00,,,-99.99,WeatherLink 5.6,2013-01-19 07:00:00,
2013-01-19 02:30:00,31.5,28.6,30.29,South,180,14.0,20.0,89,0.00,,,-99.99,WeatherLink 5.6,2013-01-19 07:30:00,
2013-01-19 03:00:00,31.1,26.8,30.30,South,180,11.0,19.0,84,0.00,,,-99.99,WeatherLink 5.6,2013-01-19 08:00:00,
2013-01-19 03:30:00,30.8,26.2,30.28,South,180,13.0,25.0,83,0.00,,,-99.99,WeatherLink 5.6,2013-01-19 08:30:00,
2013-01-19 04:00:00,31.5,26.3,30.28,South,180,15.0,24.0,81,0.00,,,-99.99,WeatherLink 5.6,2013-01-19 09:00:00,
2013-01-19 04:30:00,31.5,26.6,30.27,South,180,15.0,23.0,82,0.00,,,-99.99,WeatherLink 5.6,2013-01-19 09:30:00,
2013-01-19 05:00:00,31.6,27.0,30.27,South,180,14.0,22.0,83,0.00,,,-99.99,WeatherLink 5.6,2013-01-19 10:00:00,
2013-01-19 05:30:00,31.1,26.0,30.26,South,180,17.0,30.0,81,0.00,,,-99.99,WeatherLink 5.6,2013-01-19 10:30:00,
2013-01-19 06:00:00,31.0,25.9,30.26,South,180,19.0,27.0,81,0.00,,,-99.99,WeatherLink 5.6,2013-01-19 11:00:00,
2013-01-19 06:30:00,30.5,26.0,30.27,South,180,14.0,27.0,83,0.00,,,-99.99,WeatherLink 5.6,2013-01-19 11:30:00,
2013-01-19 07:00:00,30.3,25.8,30.28,South,180,13.0,22.0,83,0.00,,,-99.99,WeatherLink 5.6,2013-01-19 12:00:00,
2013-01-19 07:30:00,30.1,25.8,30.28,South,180,12.0,20.0,84,0.00,,,-99.99,WeatherLink 5.6,2013-01-19 12:30:00,
2013-01-19 08:00:00,30.6,26.1,30.28,South,180,12.0,19.0,83,0.00,,,-99.99,WeatherLink 5.6,2013-01-19 13:00:00,
2013-01-19 08:30:00,31.2,26.3,30.28,South,180,14.0,22.0,82,0.00,,,-99.99,WeatherLink 5.6,2013-01-19 13:30:00,
2013-01-19 09:00:00,31.5,26.9,30.28,South,180,14.0,25.0,83,0.00,,,-99.99,WeatherLink 5.6,2013-01-19 14:00:00,
2013-01-19 09:30:00,32.0,28.3,30.30,South,180,13.0,21.0,86,0.00,,,-99.99,WeatherLink 5.6,2013-01-19 14:30:00,
2013-01-19 10:00:00,32.1,28.9,30.30,South,180,12.0,24.0,88,0.00,,,-99.99,WeatherLink 5.6,2013-01-19 15:00:00,
2013-01-19 10:30:00,33.0,29.3,30.29,South,180,12.0,23.0,86,0.00,,,-99.99,WeatherLink 5.6,2013-01-19 15:30:00,
2013-01-19 11:00:00,34.2,29.0,30.28,South,180,9.0,21.0,81,0.00,,,-99.99,WeatherLink 5.6,2013-01-19 16:00:00,
2013-01-19 11:30:00,34.4,29.5,30.26,South,180,9.0,20.0,82,0.01,,,-99.99,WeatherLink 5.6,2013-01-19 16:30:00,
2013-01-19 12:00:00,35.4,28.9,30.23,South,180,8.0,18.0,77,0.01,,,-99.99,WeatherLink 5.6,2013-01-19 17:00:00,
2013-01-19 12:30:00,34.3,28.8,30.21,South,180,11.0,19.0,80,0.00,,,-99.99,WeatherLink 5.6,2013-01-19 17:30:00,
2013-01-19 13:00:00,35.8,29.6,30.18,South,180,10.0,20.0,78,0.00,,,-99.99,WeatherLink 5.6,2013-01-19 18:00:00,
2013-01-19 13:30:00,36.6,29.7,30.16,South,180,9.0,19.0,76,0.01,,,-99.99,WeatherLink 5.6,2013-01-19 18:30:00,
2013-01-19 14:00:00,36.6,29.1,30.15,South,180,9.0,20.0,74,0.04,,,-99.99,WeatherLink 5.6,2013-01-19 19:00:00,
2013-01-19 14:30:00,36.9,29.7,30.13,South,180,7.0,16.0,75,0.06,,,-99.99,WeatherLink 5.6,2013-01-19 19:30:00,
2013-01-19 15:00:00,37.0,29.1,30.11,South,180,12.0,22.0,73,0.06,,,-99.99,WeatherLink 5.6,2013-01-19 20:00:00,
2013-01-19 15:30:00,37.4,29.2,30.10,South,180,12.0,21.0,72,0.06,,,-99.99,WeatherLink 5.6,2013-01-19 20:30:00,
2013-01-19 16:00:00,37.5,29.6,30.08,South,180,7.0,20.0,73,0.05,,,-99.99,WeatherLink 5.6,2013-01-19 21:00:00,
2013-01-19 16:30:00,37.1,29.9,30.08,South,180,10.0,19.0,75,0.04,,,-99.99,WeatherLink 5.6,2013-01-19 21:30:00,
2013-01-19 17:00:00,36.5,30.0,30.08,South,180,9.0,20.0,77,0.04,,,-99.99,WeatherLink 5.6,2013-01-19 22:00:00,
2013-01-19 17:30:00,35.5,29.3,30.07,South,180,11.0,23.0,78,0.03,,,-99.99,WeatherLink 5.6,2013-01-19 22:30:00,
2013-01-19 18:00:00,35.2,29.0,30.07,South,180,14.0,28.0,78,0.01,,,-99.99,WeatherLink 5.6,2013-01-19 23:00:00,
2013-01-19 18:30:00,34.6,28.8,30.07,South,180,11.0,22.0,79,0.00,,,-99.99,WeatherLink 5.6,2013-01-19 23:30:00,
2013-01-19 19:00:00,34.4,28.6,30.08,South,180,14.0,27.0,79,0.00,,,-99.99,WeatherLink 5.6,2013-01-20 00:00:00,
2013-01-19 19:30:00,34.1,28.0,30.07,South,180,13.0,27.0,78,0.00,,,-99.99,WeatherLink 5.6,2013-01-20 00:30:00,
2013-01-19 20:00:00,34.1,28.0,30.07,South,180,12.0,27.0,78,0.00,,,-99.99,WeatherLink 5.6,2013-01-20 01:00:00,
2013-01-19 20:30:00,33.6,28.1,30.06,South,180,12.0,22.0,80,0.00,,,-99.99,WeatherLink 5.6,2013-01-20 01:30:00,
2013-01-19 21:00:00,33.2,27.7,30.06,South,180,12.0,22.0,80,0.00,,,-99.99,WeatherLink 5.6,2013-01-20 02:00:00,
2013-01-19 21:30:00,33.9,28.1,30.04,South,180,12.0,26.0,79,0.00,,,-99.99,WeatherLink 5.6,2013-01-20 02:30:00,
2013-01-19 22:00:00,33.0,28.1,30.04,South,180,12.0,24.0,82,0.00,,,-99.99,WeatherLink 5.6,2013-01-20 03:00:00,
2013-01-19 22:30:00,33.8,28.3,30.03,South,180,11.0,24.0,80,0.00,,,-99.99,WeatherLink 5.6,2013-01-20 03:30:00,
2013-01-19 23:00:00,34.0,28.5,30.03,South,180,9.0,19.0,80,0.00,,,-99.99,WeatherLink 5.6,2013-01-20 04:00:00,
2013-01-19 23:30:00,34.4,28.9,30.02,South,180,8.0,18.0,80,0.00,,,-99.99,WeatherLink 5.6,2013-01-20 04:30:00,